Meteo Giornale » Osservazioni meteo Italia » Cagliari-Elmas

ore: 03:20 - Osservazioni Meteo Cagliari-Elmas
Lat. 39° 15' N Lon. 9° 4' E Alt. 4 metri s.l.m.

sereno Europe/Rome

16 °C

Sereno

Temp. 24 Ore

13 °C

26 °C

Nord/NOvest

7.4 Km/h

Dew point 12 °C

Umidità 77 %

Visibilità  10 Km

Il sole sorge alle ore 05:58

Il sole tramonta alle ore 20:43

Data e Ora Cielo e Fenomeni T °C DP °C Um. % Pres. hPa Vis. km Vento km/h
Oggi h: 03:20 sereno Sereno 16 12 77 1017 10 N/NO 7.4
Oggi h: 02:50 sereno Sereno 16 12 77 1018 10 N 5.5
Oggi h: 02:20 sereno Sereno 16 12 77 1018 10 N 7.4
Oggi h: 01:50 sereno Sereno 17 11 67 1018 10 N 5.5
Oggi h: 01:20 sereno Sereno 19 9 52 1018 10 N 3.7
Oggi h: 00:50 sereno Sereno 20 13 64 1019 10 N 3.7
Oggi h: 00:20 sereno Sereno 20 15 72 1019 10 S 7.4
Ieri h: 23:50 sereno Sereno 21 14 64 1019 10 S 7.4
Ieri h: 23:20 sereno Sereno 21 16 73 1019 10 S 11.1
Ieri h: 22:50 sereno Sereno 21 16 73 1019 10 S 11.1
Ieri h: 22:20 sereno Sereno 21 17 77 1019 10 S 11.1
Ieri h: 21:50 sereno Sereno 21 17 77 1018 10 S/SE 9.3
Ieri h: 21:20 sereno Sereno 22 14 60 1018 10 S 11.1
Ieri h: 20:50 sereno Sereno 22 14 60 1018 10 S 11.1
Ieri h: 20:20 sereno Sereno 23 12 49 1018 10 S 11.1
Ieri h: 19:50 sereno Sereno 24 8 35 1018 10 S 11.1
Ieri h: 19:20 sereno Sereno 24 10 41 1018 10 S 13
Ieri h: 18:50 sereno Sereno 25 10 38 1018 10 S 14.8
Ieri h: 18:20 sereno Sereno 25 13 47 1018 10 S/SE 14.8
Ieri h: 17:50 sereno Sereno 25 15 53 1018 10 S 14.8
Ieri h: 17:20 sereno Sereno 25 14 50 1018 10 S 16.7
Ieri h: 16:50 sereno Sereno 26 13 44 1019 10 S/SE 18.5
Ieri h: 16:20 sereno Sereno 26 10 36 1019 10 S/SE 18.5
Ieri h: 15:50 sereno Sereno 26 10 36 1019 10 S 16.7
Ieri h: 15:20 sereno Sereno 26 10 36 1019 10 S/SE 18.5
Ieri h: 14:50 sereno Sereno 26 11 39 1019 10 S/SE 18.5
Ieri h: 14:20 sereno Sereno 26 14 47 1019 10 S 18.5
Ieri h: 13:50 sereno Sereno 26 15 50 1019 10 S/SE 18.5
Ieri h: 13:20 sereno Sereno 25 13 47 1020 10 S 14.8
Ieri h: 12:50 sereno Sereno 25 15 53 1020 10 S/SE 16.7
Ieri h: 12:20 sereno Sereno 25 12 44 1020 10 S 14.8
Ieri h: 11:50 sereno Sereno 26 9 34 1020 10 S 11.1
Ieri h: 11:20 sereno Sereno 26 10 36 1019 10 S 11.1
Ieri h: 10:50 sereno Sereno 25 12 44 1020 10 S/SO 9.3
Ieri h: 10:20 sereno Sereno 24 11 43 1020 10 O/SO 9.3
Ieri h: 09:50 sereno Sereno 23 12 49 1020 10 O 7.4
Ieri h: 09:20 sereno Sereno 21 13 60 1020 10 O/NO 7.4
Ieri h: 08:50 sereno Sereno 19 14 72 1020 10 NO 9.3
Ieri h: 08:20 sereno Sereno 18 14 77 1020 10 NO 11.1
Ieri h: 07:50 sereno Sereno 17 13 77 1020 10 NO 7.4
Ieri h: 07:20 sereno Sereno 15 11 76 1020 10 N 5.5
Ieri h: 06:50 sereno Sereno 14 11 82 1020 10 N/NO 9.3
Ieri h: 06:20 sereno Sereno 13 10 81 1019 10 N/NO 11.1
Ieri h: 05:50 sereno Sereno 15 11 76 1019 10 N/NO 7.4
Ieri h: 05:20 sereno Sereno 15 11 76 1019 10 N 3.7
Ieri h: 04:50 sereno Sereno 15 11 76 1019 10 N 1.8
Ieri h: 04:20 sereno Sereno 15 11 76 1019 10 N 3.7
Ieri h: 03:50 sereno Sereno 16 11 72 1019 10 N 5.5